sensor_id;sensor_type;location;lat;lon;timestamp;pressure;altitude;pressure_sealevel;temperature;humidity
13581;BME280;6861;46.170;7.222;2023-04-16T00:01:00;96045.94;;;10.52;56.89
13581;BME280;6861;46.170;7.222;2023-04-16T00:03:28;96053.53;;;10.54;56.70
13581;BME280;6861;46.170;7.222;2023-04-16T00:05:56;96054.31;;;10.55;56.76
13581;BME280;6861;46.170;7.222;2023-04-16T00:08:24;96050.13;;;10.59;56.92
13581;BME280;6861;46.170;7.222;2023-04-16T00:10:54;96050.38;;;10.62;56.86
13581;BME280;6861;46.170;7.222;2023-04-16T00:13:22;96051.16;;;10.63;57.33
13581;BME280;6861;46.170;7.222;2023-04-16T00:15:51;96048.56;;;10.58;57.46
13581;BME280;6861;46.170;7.222;2023-04-16T00:18:19;96055.34;;;10.48;57.51
13581;BME280;6861;46.170;7.222;2023-04-16T00:20:47;96047.78;;;10.37;57.56
13581;BME280;6861;46.170;7.222;2023-04-16T00:23:16;96056.41;;;10.32;57.83
13581;BME280;6861;46.170;7.222;2023-04-16T00:25:44;96065.31;;;10.31;57.49
13581;BME280;6861;46.170;7.222;2023-04-16T00:28:14;96051.69;;;10.29;57.74
13581;BME280;6861;46.170;7.222;2023-04-16T00:30:42;96051.97;;;10.28;57.94
13581;BME280;6861;46.170;7.222;2023-04-16T00:33:10;96044.38;;;10.26;57.98
13581;BME280;6861;46.170;7.222;2023-04-16T00:35:38;96049.59;;;10.26;57.97
13581;BME280;6861;46.170;7.222;2023-04-16T00:38:06;96052.22;;;10.31;57.67
13581;BME280;6861;46.170;7.222;2023-04-16T00:40:34;96062.19;;;10.39;57.55
13581;BME280;6861;46.170;7.222;2023-04-16T00:43:03;96050.38;;;10.47;57.40
13581;BME280;6861;46.170;7.222;2023-04-16T00:45:33;96054.31;;;10.55;57.34
13581;BME280;6861;46.170;7.222;2023-04-16T00:48:02;96058.50;;;10.56;57.18
13581;BME280;6861;46.170;7.222;2023-04-16T00:50:30;96061.38;;;10.59;57.30
13581;BME280;6861;46.170;7.222;2023-04-16T00:52:58;96067.91;;;10.62;56.98
13581;BME280;6861;46.170;7.222;2023-04-16T00:55:27;96062.69;;;10.67;56.73
13581;BME280;6861;46.170;7.222;2023-04-16T00:57:55;96060.06;;;10.72;56.78
13581;BME280;6861;46.170;7.222;2023-04-16T01:00:23;96061.13;;;10.76;56.84
13581;BME280;6861;46.170;7.222;2023-04-16T01:02:54;96062.16;;;10.80;56.50
13581;BME280;6861;46.170;7.222;2023-04-16T01:05:22;96070.53;;;10.82;56.74
13581;BME280;6861;46.170;7.222;2023-04-16T01:07:50;96075.75;;;10.82;56.31
13581;BME280;6861;46.170;7.222;2023-04-16T01:10:19;96072.63;;;10.80;56.71
13581;BME280;6861;46.170;7.222;2023-04-16T01:12:47;96061.91;;;10.81;56.40
13581;BME280;6861;46.170;7.222;2023-04-16T01:15:15;96057.44;;;10.77;56.61
13581;BME280;6861;46.170;7.222;2023-04-16T01:17:44;96063.19;;;10.74;56.74
13581;BME280;6861;46.170;7.222;2023-04-16T01:20:14;96051.69;;;10.70;57.03
13581;BME280;6861;46.170;7.222;2023-04-16T01:22:43;96057.97;;;10.69;56.54
13581;BME280;6861;46.170;7.222;2023-04-16T01:25:13;96068.97;;;10.71;56.98
13581;BME280;6861;46.170;7.222;2023-04-16T01:27:42;96061.63;;;10.73;57.15
13581;BME280;6861;46.170;7.222;2023-04-16T01:30:10;96060.06;;;10.72;56.81
13581;BME280;6861;46.170;7.222;2023-04-16T01:32:38;96057.19;;;10.68;56.50
13581;BME280;6861;46.170;7.222;2023-04-16T01:35:07;96061.63;;;10.63;57.17
13581;BME280;6861;46.170;7.222;2023-04-16T01:37:35;96056.94;;;10.55;56.86
13581;BME280;6861;46.170;7.222;2023-04-16T01:40:05;96066.34;;;10.50;57.10
13581;BME280;6861;46.170;7.222;2023-04-16T01:42:33;96063.19;;;10.48;57.14
13581;BME280;6861;46.170;7.222;2023-04-16T01:45:01;96064.78;;;10.49;57.29
13581;BME280;6861;46.170;7.222;2023-04-16T01:47:30;96063.47;;;10.52;57.55
13581;BME280;6861;46.170;7.222;2023-04-16T01:49:58;96072.09;;;10.52;57.37
13581;BME280;6861;46.170;7.222;2023-04-16T01:52:26;96063.19;;;10.48;57.38
13581;BME280;6861;46.170;7.222;2023-04-16T01:54:54;96067.38;;;10.49;57.10
13581;BME280;6861;46.170;7.222;2023-04-16T01:57:24;96072.63;;;10.55;57.34
13581;BME280;6861;46.170;7.222;2023-04-16T01:59:52;96070.28;;;10.58;57.15
13581;BME280;6861;46.170;7.222;2023-04-16T02:02:20;96071.31;;;10.62;57.14
13581;BME280;6861;46.170;7.222;2023-04-16T02:04:54;96065.31;;;10.62;56.92
13581;BME280;6861;46.170;7.222;2023-04-16T02:07:23;96066.34;;;10.56;57.09
13581;BME280;6861;46.170;7.222;2023-04-16T02:09:53;96070.00;;;10.55;56.83
13581;BME280;6861;46.170;7.222;2023-04-16T02:12:21;96075.25;;;10.55;57.18
13581;BME280;6861;46.170;7.222;2023-04-16T02:14:50;96072.63;;;10.49;57.15
13581;BME280;6861;46.170;7.222;2023-04-16T02:17:19;96067.38;;;10.49;57.54
13581;BME280;6861;46.170;7.222;2023-04-16T02:19:47;96079.94;;;10.58;57.12
13581;BME280;6861;46.170;7.222;2023-04-16T02:22:15;96072.88;;;10.63;56.97
13581;BME280;6861;46.170;7.222;2023-04-16T02:24:43;96069.50;;;10.68;57.22
13581;BME280;6861;46.170;7.222;2023-04-16T02:27:11;96072.63;;;10.70;57.04
13581;BME280;6861;46.170;7.222;2023-04-16T02:29:39;96073.94;;;10.72;56.82
13581;BME280;6861;46.170;7.222;2023-04-16T02:32:09;96055.88;;;10.76;57.03
13581;BME280;6861;46.170;7.222;2023-04-16T02:34:37;96064.25;;;10.78;56.97
13581;BME280;6861;46.170;7.222;2023-04-16T02:37:06;96064.00;;;10.79;56.88
13581;BME280;6861;46.170;7.222;2023-04-16T02:39:34;96075.25;;;10.80;56.97
13581;BME280;6861;46.170;7.222;2023-04-16T02:42:02;96065.03;;;10.78;56.63
13581;BME280;6861;46.170;7.222;2023-04-16T02:44:30;96066.09;;;10.77;56.91
13581;BME280;6861;46.170;7.222;2023-04-16T02:46:58;96060.84;;;10.72;57.21
13581;BME280;6861;46.170;7.222;2023-04-16T02:49:27;96060.59;;;10.64;57.12
13581;BME280;6861;46.170;7.222;2023-04-16T02:51:55;96066.88;;;10.58;57.28
13581;BME280;6861;46.170;7.222;2023-04-16T02:54:23;96056.94;;;10.55;57.14
13581;BME280;6861;46.170;7.222;2023-04-16T02:56:52;96062.41;;;10.58;57.08
13581;BME280;6861;46.170;7.222;2023-04-16T02:59:20;96063.22;;;10.64;56.82
13581;BME280;6861;46.170;7.222;2023-04-16T03:01:48;96059.03;;;10.68;56.81
13581;BME280;6861;46.170;7.222;2023-04-16T03:04:16;96064.25;;;10.68;57.35
13581;BME280;6861;46.170;7.222;2023-04-16T03:06:45;96066.34;;;10.66;57.00
13581;BME280;6861;46.170;7.222;2023-04-16T03:09:13;96061.38;;;10.59;57.10
13581;BME280;6861;46.170;7.222;2023-04-16T03:11:41;96059.53;;;10.55;57.25
13581;BME280;6861;46.170;7.222;2023-04-16T03:14:09;96057.19;;;10.53;57.27
13581;BME280;6861;46.170;7.222;2023-04-16T03:16:38;96070.28;;;10.53;57.21
13581;BME280;6861;46.170;7.222;2023-04-16T03:19:06;96075.75;;;10.51;57.07
13581;BME280;6861;46.170;7.222;2023-04-16T03:21:34;96068.69;;;10.47;57.02
13581;BME280;6861;46.170;7.222;2023-04-16T03:24:04;96065.03;;;10.48;57.27
13581;BME280;6861;46.170;7.222;2023-04-16T03:26:32;96061.09;;;10.50;57.46
13581;BME280;6861;46.170;7.222;2023-04-16T03:29:00;96050.66;;;10.56;56.97
13581;BME280;6861;46.170;7.222;2023-04-16T03:31:29;96058.50;;;10.61;56.87
13581;BME280;6861;46.170;7.222;2023-04-16T03:33:57;96057.19;;;10.63;57.03
13581;BME280;6861;46.170;7.222;2023-04-16T03:36:25;96060.06;;;10.67;56.96
13581;BME280;6861;46.170;7.222;2023-04-16T03:38:53;96059.03;;;10.68;56.77
13581;BME280;6861;46.170;7.222;2023-04-16T03:41:23;96068.19;;;10.70;56.76
13581;BME280;6861;46.170;7.222;2023-04-16T03:43:51;96062.94;;;10.70;56.63
13581;BME280;6861;46.170;7.222;2023-04-16T03:46:19;96057.19;;;10.73;56.37
13581;BME280;6861;46.170;7.222;2023-04-16T03:48:47;96054.03;;;10.76;56.59
13581;BME280;6861;46.170;7.222;2023-04-16T03:51:15;96056.41;;;10.78;56.56
13581;BME280;6861;46.170;7.222;2023-04-16T03:53:43;96050.63;;;10.76;56.55
13581;BME280;6861;46.170;7.222;2023-04-16T03:56:11;96046.47;;;10.75;56.60
13581;BME280;6861;46.170;7.222;2023-04-16T03:58:40;96056.13;;;10.74;56.16
13581;BME280;6861;46.170;7.222;2023-04-16T04:01:09;96046.47;;;10.70;56.17
13581;BME280;6861;46.170;7.222;2023-04-16T04:03:37;96051.16;;;10.63;56.30
13581;BME280;6861;46.170;7.222;2023-04-16T04:06:06;96053.25;;;10.50;56.70
13581;BME280;6861;46.170;7.222;2023-04-16T04:08:34;96050.63;;;10.40;56.80
13581;BME280;6861;46.170;7.222;2023-04-16T04:11:02;96055.38;;;10.38;57.02
13581;BME280;6861;46.170;7.222;2023-04-16T04:13:30;96057.47;;;10.36;56.84
13581;BME280;6861;46.170;7.222;2023-04-16T04:16:00;96055.91;;;10.35;57.01
13581;BME280;6861;46.170;7.222;2023-04-16T04:18:28;96060.06;;;10.31;56.89
13581;BME280;6861;46.170;7.222;2023-04-16T04:20:56;96056.94;;;10.29;56.75
13581;BME280;6861;46.170;7.222;2023-04-16T04:23:24;96057.97;;;10.28;56.87
13581;BME280;6861;46.170;7.222;2023-04-16T04:25:52;96060.31;;;10.25;56.97
13581;BME280;6861;46.170;7.222;2023-04-16T04:28:20;96062.69;;;10.26;57.16
13581;BME280;6861;46.170;7.222;2023-04-16T04:30:48;96062.69;;;10.26;56.83
13581;BME280;6861;46.170;7.222;2023-04-16T04:33:18;96060.59;;;10.28;56.77
13581;BME280;6861;46.170;7.222;2023-04-16T04:35:46;96058.50;;;10.30;56.74
13581;BME280;6861;46.170;7.222;2023-04-16T04:38:14;96059.03;;;10.32;56.61
13581;BME280;6861;46.170;7.222;2023-04-16T04:40:45;96057.47;;;10.31;56.79
13581;BME280;6861;46.170;7.222;2023-04-16T04:43:13;96058.00;;;10.33;56.45
13581;BME280;6861;46.170;7.222;2023-04-16T04:45:41;96056.41;;;10.37;56.38
13581;BME280;6861;46.170;7.222;2023-04-16T04:48:09;96057.47;;;10.36;56.27
13581;BME280;6861;46.170;7.222;2023-04-16T04:50:39;96052.50;;;10.40;56.32
13581;BME280;6861;46.170;7.222;2023-04-16T04:53:07;96059.53;;;10.44;55.96
13581;BME280;6861;46.170;7.222;2023-04-16T04:55:36;96049.84;;;10.45;55.84
13581;BME280;6861;46.170;7.222;2023-04-16T04:58:05;96054.56;;;10.48;55.35
13581;BME280;6861;46.170;7.222;2023-04-16T05:00:34;96050.13;;;10.48;55.40
13581;BME280;6861;46.170;7.222;2023-04-16T05:03:05;96055.63;;;10.47;54.48
13581;BME280;6861;46.170;7.222;2023-04-16T05:05:33;96057.19;;;10.48;54.56
13581;BME280;6861;46.170;7.222;2023-04-16T05:08:03;96058.75;;;10.49;54.27
13581;BME280;6861;46.170;7.222;2023-04-16T05:10:32;96054.84;;;10.51;54.31
13581;BME280;6861;46.170;7.222;2023-04-16T05:13:00;96061.09;;;10.50;53.84
13581;BME280;6861;46.170;7.222;2023-04-16T05:15:28;96052.47;;;10.50;53.78
13581;BME280;6861;46.170;7.222;2023-04-16T05:17:56;96059.00;;;10.47;54.19
13581;BME280;6861;46.170;7.222;2023-04-16T05:20:24;96068.69;;;10.47;54.62
13581;BME280;6861;46.170;7.222;2023-04-16T05:22:52;96070.00;;;10.49;54.72
13581;BME280;6861;46.170;7.222;2023-04-16T05:25:22;96071.06;;;10.54;54.76
13581;BME280;6861;46.170;7.222;2023-04-16T05:27:50;96070.53;;;10.51;54.99
13581;BME280;6861;46.170;7.222;2023-04-16T05:30:18;96076.28;;;10.48;55.09
13581;BME280;6861;46.170;7.222;2023-04-16T05:32:46;96076.00;;;10.45;55.71
13581;BME280;6861;46.170;7.222;2023-04-16T05:35:14;96080.47;;;10.44;55.66
13581;BME280;6861;46.170;7.222;2023-04-16T05:37:43;96068.94;;;10.45;55.53
13581;BME280;6861;46.170;7.222;2023-04-16T05:40:12;96072.63;;;10.49;55.28
13581;BME280;6861;46.170;7.222;2023-04-16T05:42:42;96072.88;;;10.53;55.17
13581;BME280;6861;46.170;7.222;2023-04-16T05:45:10;96076.81;;;10.56;55.30
13581;BME280;6861;46.170;7.222;2023-04-16T05:47:38;96082.03;;;10.56;54.94
13581;BME280;6861;46.170;7.222;2023-04-16T05:50:07;96079.16;;;10.52;55.12
13581;BME280;6861;46.170;7.222;2023-04-16T05:52:35;96079.44;;;10.50;55.04
13581;BME280;6861;46.170;7.222;2023-04-16T05:55:03;96078.38;;;10.51;55.00
13581;BME280;6861;46.170;7.222;2023-04-16T05:57:32;96081.53;;;10.54;54.75
13581;BME280;6861;46.170;7.222;2023-04-16T06:00:02;96077.06;;;10.59;54.45
13581;BME280;6861;46.170;7.222;2023-04-16T06:02:31;96068.97;;;10.56;54.10
13581;BME280;6861;46.170;7.222;2023-04-16T06:04:59;96074.72;;;10.58;53.71
13581;BME280;6861;46.170;7.222;2023-04-16T06:07:27;96078.38;;;10.57;53.69
13581;BME280;6861;46.170;7.222;2023-04-16T06:09:56;96066.88;;;10.58;53.84
13581;BME280;6861;46.170;7.222;2023-04-16T06:12:24;96074.72;;;10.58;53.79
13581;BME280;6861;46.170;7.222;2023-04-16T06:14:52;96067.91;;;10.57;53.89
13581;BME280;6861;46.170;7.222;2023-04-16T06:17:22;96077.06;;;10.59;53.78
13581;BME280;6861;46.170;7.222;2023-04-16T06:19:50;96066.88;;;10.63;53.49
13581;BME280;6861;46.170;7.222;2023-04-16T06:22:18;96070.78;;;10.65;53.71
13581;BME280;6861;46.170;7.222;2023-04-16T06:24:46;96078.38;;;10.67;53.41
13581;BME280;6861;46.170;7.222;2023-04-16T06:27:15;96076.03;;;10.70;53.00
13581;BME280;6861;46.170;7.222;2023-04-16T06:29:43;96075.75;;;10.72;53.13
13581;BME280;6861;46.170;7.222;2023-04-16T06:32:11;96080.47;;;10.80;52.61
13581;BME280;6861;46.170;7.222;2023-04-16T06:34:40;96075.75;;;10.92;52.10
13581;BME280;6861;46.170;7.222;2023-04-16T06:37:08;96079.16;;;10.98;52.43
13581;BME280;6861;46.170;7.222;2023-04-16T06:39:36;96075.72;;;11.12;51.73
13581;BME280;6861;46.170;7.222;2023-04-16T06:42:05;96083.84;;;11.26;51.96
13581;BME280;6861;46.170;7.222;2023-04-16T06:44:33;96071.47;;;11.37;51.49
13581;BME280;6861;46.170;7.222;2023-04-16T06:47:02;96072.47;;;11.51;51.26
13581;BME280;6861;46.170;7.222;2023-04-16T06:49:30;96083.94;;;11.65;50.31
13581;BME280;6861;46.170;7.222;2023-04-16T06:51:59;96085.47;;;11.76;49.93
13581;BME280;6861;46.170;7.222;2023-04-16T06:54:31;96082.28;;;11.95;49.62
13581;BME280;6861;46.170;7.222;2023-04-16T06:56:59;96082.44;;;12.13;49.46
13581;BME280;6861;46.170;7.222;2023-04-16T06:59:27;96078.91;;;12.33;49.30
13581;BME280;6861;46.170;7.222;2023-04-16T07:01:55;96079.94;;;12.37;49.32
13581;BME280;6861;46.170;7.222;2023-04-16T07:04:24;96078.34;;;12.36;48.73
13581;BME280;6861;46.170;7.222;2023-04-16T07:06:52;96079.50;;;12.20;47.68
13581;BME280;6861;46.170;7.222;2023-04-16T07:09:21;96085.03;;;12.13;47.81
13581;BME280;6861;46.170;7.222;2023-04-16T07:11:49;96087.47;;;12.10;48.93
13581;BME280;6861;46.170;7.222;2023-04-16T07:14:17;96091.06;;;12.19;48.94
13581;BME280;6861;46.170;7.222;2023-04-16T07:16:45;96086.03;;;12.23;48.46
13581;BME280;6861;46.170;7.222;2023-04-16T07:19:13;96078.34;;;12.36;48.25
13581;BME280;6861;46.170;7.222;2023-04-16T07:21:41;96081.19;;;12.45;46.79
13581;BME280;6861;46.170;7.222;2023-04-16T07:24:10;96076.75;;;13.03;46.41
13581;BME280;6861;46.170;7.222;2023-04-16T07:26:39;96084.22;;;13.49;46.38
13581;BME280;6861;46.170;7.222;2023-04-16T07:29:07;96079.75;;;13.73;46.31
13581;BME280;6861;46.170;7.222;2023-04-16T07:31:36;96078.41;;;13.76;45.64
13581;BME280;6861;46.170;7.222;2023-04-16T07:34:04;96082.75;;;13.86;45.91
13581;BME280;6861;46.170;7.222;2023-04-16T07:36:32;96073.84;;;14.00;45.20
13581;BME280;6861;46.170;7.222;2023-04-16T07:39:00;96063.06;;;14.21;45.01
13581;BME280;6861;46.170;7.222;2023-04-16T07:41:28;96058.28;;;14.04;44.69
13581;BME280;6861;46.170;7.222;2023-04-16T07:43:58;96065.75;;;13.97;45.23
13581;BME280;6861;46.170;7.222;2023-04-16T07:46:26;96069.44;;;13.96;45.15
13581;BME280;6861;46.170;7.222;2023-04-16T07:49:11;96070.06;;;13.88;45.40
13581;BME280;6861;46.170;7.222;2023-04-16T07:51:39;96064.53;;;13.70;45.47
13581;BME280;6861;46.170;7.222;2023-04-16T07:54:07;96074.16;;;13.56;45.67
13581;BME280;6861;46.170;7.222;2023-04-16T07:56:35;96085.91;;;13.40;46.55
13581;BME280;6861;46.170;7.222;2023-04-16T07:59:05;96089.28;;;13.11;45.16
13581;BME280;6861;46.170;7.222;2023-04-16T08:01:48;96083.31;;;12.77;45.92
13581;BME280;6861;46.170;7.222;2023-04-16T08:04:16;96085.88;;;12.48;45.71
13581;BME280;6861;46.170;7.222;2023-04-16T08:06:51;96090.41;;;12.37;46.59
13581;BME280;6861;46.170;7.222;2023-04-16T08:09:19;96090.97;;;12.34;46.43
13581;BME280;6861;46.170;7.222;2023-04-16T08:11:48;96095.63;;;12.42;47.00
13581;BME280;6861;46.170;7.222;2023-04-16T08:14:17;96098.19;;;12.53;47.09
13581;BME280;6861;46.170;7.222;2023-04-16T08:16:46;96098.41;;;12.61;46.74
13581;BME280;6861;46.170;7.222;2023-04-16T08:19:14;96108.56;;;12.73;45.97
13581;BME280;6861;46.170;7.222;2023-04-16T08:21:42;96115.25;;;12.89;45.80
13581;BME280;6861;46.170;7.222;2023-04-16T08:24:10;96113.44;;;13.13;44.83
13581;BME280;6861;46.170;7.222;2023-04-16T08:26:38;96113.72;;;13.12;44.82
13581;BME280;6861;46.170;7.222;2023-04-16T08:29:06;96115.56;;;13.17;44.58
13581;BME280;6861;46.170;7.222;2023-04-16T08:31:36;96121.69;;;13.36;44.54
13581;BME280;6861;46.170;7.222;2023-04-16T08:34:05;96128.06;;;13.54;44.73
13581;BME280;6861;46.170;7.222;2023-04-16T08:36:33;96133.47;;;13.67;44.32
13581;BME280;6861;46.170;7.222;2023-04-16T08:39:01;96133.63;;;13.76;44.56
13581;BME280;6861;46.170;7.222;2023-04-16T08:41:30;96130.09;;;13.86;44.72
13581;BME280;6861;46.170;7.222;2023-04-16T08:44:02;96139.16;;;13.74;44.26
13581;BME280;6861;46.170;7.222;2023-04-16T08:46:37;96139.44;;;13.49;45.06
13581;BME280;6861;46.170;7.222;2023-04-16T08:49:07;96135.88;;;13.35;45.17
13581;BME280;6861;46.170;7.222;2023-04-16T08:51:39;96135.38;;;13.33;46.07
13581;BME280;6861;46.170;7.222;2023-04-16T08:54:11;96137.00;;;13.29;45.01
13581;BME280;6861;46.170;7.222;2023-04-16T08:56:42;96126.84;;;13.46;44.86
13581;BME280;6861;46.170;7.222;2023-04-16T08:59:10;96137.69;;;13.63;45.52
13581;BME280;6861;46.170;7.222;2023-04-16T09:01:40;96130.88;;;13.86;44.54
13581;BME280;6861;46.170;7.222;2023-04-16T09:04:09;96123.56;;;14.02;44.87
13581;BME280;6861;46.170;7.222;2023-04-16T09:06:37;96116.47;;;14.21;44.33
13581;BME280;6861;46.170;7.222;2023-04-16T09:09:07;96119.50;;;14.52;44.59
13581;BME280;6861;46.170;7.222;2023-04-16T09:11:37;96126.22;;;15.42;43.25
13581;BME280;6861;46.170;7.222;2023-04-16T09:14:08;96123.09;;;16.22;41.84
13581;BME280;6861;46.170;7.222;2023-04-16T09:16:37;96115.63;;;16.74;40.99
13581;BME280;6861;46.170;7.222;2023-04-16T09:19:08;96119.59;;;17.08;40.48
13581;BME280;6861;46.170;7.222;2023-04-16T09:21:37;96109.47;;;17.32;40.23
13581;BME280;6861;46.170;7.222;2023-04-16T09:24:07;96110.25;;;17.32;40.16
13581;BME280;6861;46.170;7.222;2023-04-16T09:26:35;96120.66;;;17.29;39.63
13581;BME280;6861;46.170;7.222;2023-04-16T09:29:04;96131.06;;;17.25;40.34
13581;BME280;6861;46.170;7.222;2023-04-16T09:31:32;96114.97;;;17.13;39.89
13581;BME280;6861;46.170;7.222;2023-04-16T09:34:02;96121.03;;;16.91;40.19
13581;BME280;6861;46.170;7.222;2023-04-16T09:36:32;96122.28;;;16.71;40.48
13581;BME280;6861;46.170;7.222;2023-04-16T09:39:02;96115.69;;;16.47;40.80
13581;BME280;6861;46.170;7.222;2023-04-16T09:41:31;96113.03;;;16.24;40.77
13581;BME280;6861;46.170;7.222;2023-04-16T09:44:03;96121.34;;;16.04;41.42
13581;BME280;6861;46.170;7.222;2023-04-16T09:46:33;96116.56;;;15.79;41.39
13581;BME280;6861;46.170;7.222;2023-04-16T09:49:04;96125.69;;;15.59;41.85
13581;BME280;6861;46.170;7.222;2023-04-16T09:51:39;96112.44;;;15.45;41.50
13581;BME280;6861;46.170;7.222;2023-04-16T09:54:08;96120.84;;;15.33;41.80
13581;BME280;6861;46.170;7.222;2023-04-16T09:56:39;96119.66;;;15.26;41.91
13581;BME280;6861;46.170;7.222;2023-04-16T09:59:08;96123.94;;;15.22;41.42
13581;BME280;6861;46.170;7.222;2023-04-16T10:01:43;96116.91;;;15.17;41.60
13581;BME280;6861;46.170;7.222;2023-04-16T10:04:12;96128.78;;;15.15;41.76
13581;BME280;6861;46.170;7.222;2023-04-16T10:06:42;96113.28;;;15.13;41.67
13581;BME280;6861;46.170;7.222;2023-04-16T10:09:14;96109.66;;;15.09;41.55
13581;BME280;6861;46.170;7.222;2023-04-16T10:11:42;96116.84;;;15.03;41.68
13581;BME280;6861;46.170;7.222;2023-04-16T10:14:10;96104.19;;;15.05;41.56
13581;BME280;6861;46.170;7.222;2023-04-16T10:16:38;96108.88;;;15.08;41.76
13581;BME280;6861;46.170;7.222;2023-04-16T10:19:07;96090.91;;;15.11;41.93
13581;BME280;6861;46.170;7.222;2023-04-16T10:21:36;96094.81;;;15.13;42.15
13581;BME280;6861;46.170;7.222;2023-04-16T10:24:06;96099.31;;;15.13;41.85
13581;BME280;6861;46.170;7.222;2023-04-16T10:26:35;96098.53;;;15.12;41.80
13581;BME280;6861;46.170;7.222;2023-04-16T10:29:05;96102.44;;;15.15;41.68
13581;BME280;6861;46.170;7.222;2023-04-16T10:31:35;96104.78;;;15.16;41.56
13581;BME280;6861;46.170;7.222;2023-04-16T10:34:08;96102.84;;;15.22;41.56
13581;BME280;6861;46.170;7.222;2023-04-16T10:36:36;96104.41;;;15.23;41.31
13581;BME280;6861;46.170;7.222;2023-04-16T10:39:11;96097.47;;;15.27;41.61
13581;BME280;6861;46.170;7.222;2023-04-16T10:41:44;96105.41;;;15.27;41.12
13581;BME280;6861;46.170;7.222;2023-04-16T10:44:16;96104.41;;;15.23;41.17
13581;BME280;6861;46.170;7.222;2023-04-16T10:46:51;96106.34;;;15.17;41.35
13581;BME280;6861;46.170;7.222;2023-04-16T10:49:39;96099.91;;;15.23;41.63
13581;BME280;6861;46.170;7.222;2023-04-16T10:52:10;96112.22;;;15.28;41.50
13581;BME280;6861;46.170;7.222;2023-04-16T10:54:41;96096.81;;;15.35;41.11
13581;BME280;6861;46.170;7.222;2023-04-16T10:57:14;96099.19;;;15.50;41.10
13581;BME280;6861;46.170;7.222;2023-04-16T10:59:44;96097.03;;;15.66;40.92
13581;BME280;6861;46.170;7.222;2023-04-16T11:02:15;96102.69;;;15.87;40.40
13581;BME280;6861;46.170;7.222;2023-04-16T11:04:45;96084.78;;;16.11;40.31
13581;BME280;6861;46.170;7.222;2023-04-16T11:07:16;96091.72;;;16.21;40.14
13581;BME280;6861;46.170;7.222;2023-04-16T11:09:51;96082.41;;;16.23;40.09
13581;BME280;6861;46.170;7.222;2023-04-16T11:12:21;96083.38;;;16.27;39.45
13581;BME280;6861;46.170;7.222;2023-04-16T11:14:51;96082.91;;;16.25;39.16
13581;BME280;6861;46.170;7.222;2023-04-16T11:17:20;96086.09;;;16.36;39.24
13581;BME280;6861;46.170;7.222;2023-04-16T11:19:51;96089.91;;;16.44;39.10
13581;BME280;6861;46.170;7.222;2023-04-16T11:22:23;96094.63;;;16.55;38.36
13581;BME280;6861;46.170;7.222;2023-04-16T11:24:59;96092.75;;;16.69;38.44
13581;BME280;6861;46.170;7.222;2023-04-16T11:27:34;96076.03;;;16.83;38.62
13581;BME280;6861;46.170;7.222;2023-04-16T11:30:08;96085.28;;;16.94;38.71
13581;BME280;6861;46.170;7.222;2023-04-16T11:32:43;96080.41;;;17.10;38.24
13581;BME280;6861;46.170;7.222;2023-04-16T11:35:17;96081.59;;;17.34;37.84
13581;BME280;6861;46.170;7.222;2023-04-16T11:37:55;96073.59;;;17.57;37.27
13581;BME280;6861;46.170;7.222;2023-04-16T11:40:32;96074.31;;;17.71;37.12
13581;BME280;6861;46.170;7.222;2023-04-16T11:43:13;96068.88;;;17.76;37.55
13581;BME280;6861;46.170;7.222;2023-04-16T11:45:56;96071.00;;;17.65;37.20
13581;BME280;6861;46.170;7.222;2023-04-16T11:48:24;96075.94;;;17.58;36.82
13581;BME280;6861;46.170;7.222;2023-04-16T11:50:56;96067.88;;;17.63;37.30
13581;BME280;6861;46.170;7.222;2023-04-16T11:53:24;96069.19;;;17.75;36.78
13581;BME280;6861;46.170;7.222;2023-04-16T11:55:54;96065.16;;;17.86;36.82
13581;BME280;6861;46.170;7.222;2023-04-16T11:58:22;96067.50;;;17.87;36.68
13581;BME280;6861;46.170;7.222;2023-04-16T12:00:51;96070.75;;;17.84;36.65
13581;BME280;6861;46.170;7.222;2023-04-16T12:03:36;96064.69;;;17.84;36.81
13581;BME280;6861;46.170;7.222;2023-04-16T12:06:08;96063.13;;;17.83;37.03
13581;BME280;6861;46.170;7.222;2023-04-16T12:08:37;96065.00;;;17.91;37.14
13581;BME280;6861;46.170;7.222;2023-04-16T12:11:07;96059.09;;;17.94;36.67
13581;BME280;6861;46.170;7.222;2023-04-16T12:13:35;96056.63;;;17.97;36.38
13581;BME280;6861;46.170;7.222;2023-04-16T12:16:17;96061.63;;;18.08;36.60
13581;BME280;6861;46.170;7.222;2023-04-16T12:19:00;96046.97;;;18.10;36.32
13581;BME280;6861;46.170;7.222;2023-04-16T12:21:37;96044.16;;;18.07;36.09
13581;BME280;6861;46.170;7.222;2023-04-16T12:24:06;96049.31;;;18.12;36.70
13581;BME280;6861;46.170;7.222;2023-04-16T12:26:40;96043.72;;;18.13;36.42
13581;BME280;6861;46.170;7.222;2023-04-16T12:29:16;96055.22;;;18.00;nan
13581;BME280;6861;46.170;7.222;2023-04-16T12:31:45;96044.78;;;17.95;36.35
13581;BME280;6861;46.170;7.222;2023-04-16T12:34:14;96050.97;;;17.82;36.87
13581;BME280;6861;46.170;7.222;2023-04-16T12:36:43;96043.66;;;17.79;36.93
13581;BME280;6861;46.170;7.222;2023-04-16T12:39:13;96033.69;;;17.76;36.92
13581;BME280;6861;46.170;7.222;2023-04-16T12:41:44;96031.50;;;17.78;36.67
13581;BME280;6861;46.170;7.222;2023-04-16T12:44:15;96037.56;;;17.78;36.74
13581;BME280;6861;46.170;7.222;2023-04-16T12:46:44;96037.28;;;17.88;36.32
13581;BME280;6861;46.170;7.222;2023-04-16T12:49:12;96031.38;;;18.00;36.68
13581;BME280;6861;46.170;7.222;2023-04-16T12:51:40;96033.41;;;18.03;36.85
13581;BME280;6861;46.170;7.222;2023-04-16T12:54:09;96032.63;;;18.02;36.99
13581;BME280;6861;46.170;7.222;2023-04-16T12:56:37;96026.56;;;18.02;36.47
13581;BME280;6861;46.170;7.222;2023-04-16T12:59:07;96036.38;;;17.93;36.54
13581;BME280;6861;46.170;7.222;2023-04-16T13:01:36;96040.53;;;17.77;37.06
13581;BME280;6861;46.170;7.222;2023-04-16T13:04:04;96025.53;;;17.63;37.45
13581;BME280;6861;46.170;7.222;2023-04-16T13:06:33;96022.84;;;17.55;37.18
13581;BME280;6861;46.170;7.222;2023-04-16T13:09:03;96015.53;;;17.52;37.47
13581;BME280;6861;46.170;7.222;2023-04-16T13:11:31;96025.31;;;17.43;37.66
13581;BME280;6861;46.170;7.222;2023-04-16T13:13:59;96019.53;;;17.32;37.75
13581;BME280;6861;46.170;7.222;2023-04-16T13:16:29;96022.78;;;17.29;37.74
13581;BME280;6861;46.170;7.222;2023-04-16T13:18:57;96006.31;;;17.32;38.01
13581;BME280;6861;46.170;7.222;2023-04-16T13:21:26;96011.44;;;17.37;37.97